Time;durP1;ratioP1;P1;durP2;ratioP2;P2;SDS_P1;SDS_P2;PMS_P1;PMS_P2;Temp;Humidity;BMP_temperature;BMP_pressure;BME280_temperature;BME280_humidity;BME280_pressure;Samples;Min_cycle;Max_cycle;Signal;HPM_P1;HPM_P2
2021/04/03 00:02:03;;;;;;;0.20;0.20;;;;;;;2.65;91.10;102350.63;12706852;23;19997;-93
2021/04/03 00:07:04;;;;;;;0.17;0.17;;;;;;;2.70;91.62;102356.50;12707398;23;20017;-94
2021/04/03 00:12:06;;;;;;;0.30;0.30;;;;;;;2.60;91.43;102343.88;12706582;23;20021;-94
2021/04/03 00:17:07;;;;;;;0.13;0.13;;;;;;;2.55;91.46;102357.22;12706923;23;19994;-93
2021/04/03 00:22:07;;;;;;;0.20;0.20;;;;;;;2.54;91.52;102357.31;12706502;23;20002;-94
2021/04/03 00:27:08;;;;;;;0.10;0.10;;;;;;;2.42;92.18;102364.81;12706901;23;20018;-91
2021/04/03 00:32:08;;;;;;;0.20;0.20;;;;;;;2.35;92.92;102360.75;12706536;23;19998;-93
2021/04/03 00:37:09;;;;;;;0.20;0.20;;;;;;;2.42;92.80;102385.00;12706830;23;20085;-94
2021/04/03 00:42:17;;;;;;;0.17;0.17;;;;;;;2.36;92.64;102364.25;12706619;23;19994;-93
2021/04/03 00:47:18;;;;;;;0.20;0.20;;;;;;;2.33;93.16;102372.25;12706561;23;20005;-93
2021/04/03 00:52:18;;;;;;;0.20;0.20;;;;;;;2.14;92.74;102352.03;12706656;23;20005;-93
2021/04/03 00:57:19;;;;;;;0.10;0.10;;;;;;;2.17;93.39;102366.81;12705120;23;20006;-93
2021/04/03 01:02:20;;;;;;;0.20;0.20;;;;;;;2.09;93.01;102371.56;12705067;23;20242;-93
2021/04/03 01:07:20;;;;;;;0.10;0.10;;;;;;;2.03;93.49;102370.03;12705486;23;20010;-93
2021/04/03 01:12:52;;;;;;;0.20;0.20;;;;;;;2.01;94.17;102366.66;12705295;23;19994;-93
2021/04/03 01:18:01;;;;;;;0.10;0.10;;;;;;;2.16;94.15;102386.16;12705675;23;20002;-93
2021/04/03 01:23:14;;;;;;;0.10;0.10;;;;;;;2.14;94.10;102383.56;12707662;23;20013;-92
2021/04/03 01:28:49;;;;;;;0.20;0.20;;;;;;;2.22;94.20;102392.00;12708905;23;20001;-93
2021/04/03 01:33:53;;;;;;;0.20;0.20;;;;;;;2.09;94.14;102382.91;12709110;23;20076;-93
2021/04/03 01:38:59;;;;;;;0.17;0.17;;;;;;;2.18;94.00;102413.22;12708832;23;19995;-93
2021/04/03 01:44:04;;;;;;;0.10;0.10;;;;;;;2.05;93.83;102407.63;12709509;23;20009;-93
2021/04/03 01:49:10;;;;;;;;;;;;;;;2.09;94.34;102421.50;12710171;23;19998;-93
2021/04/03 01:54:13;;;;;;;0.10;0.10;;;;;;;2.00;94.20;102417.47;12709215;23;19913;-93
2021/04/03 01:59:15;;;;;;;0.10;0.10;;;;;;;1.94;93.83;102405.44;12707771;23;20018;-93
2021/04/03 02:04:16;;;;;;;0.20;0.20;;;;;;;1.92;94.07;102403.81;12707410;23;19994;-91
2021/04/03 02:09:19;;;;;;;0.30;0.30;;;;;;;1.98;93.57;102414.09;12708074;23;19994;-92
2021/04/03 02:14:21;;;;;;;0.20;0.20;;;;;;;1.96;92.86;102421.16;12707897;23;20030;-93
2021/04/03 02:19:22;;;;;;;0.10;0.10;;;;;;;1.94;92.58;102409.84;12707671;23;19998;-94
2021/04/03 02:24:23;;;;;;;0.10;0.10;;;;;;;1.94;92.46;102426.47;12708235;23;19998;-93
2021/04/03 02:29:23;;;;;;;0.20;0.20;;;;;;;1.94;92.12;102415.13;12708078;23;19990;-93
2021/04/03 02:34:23;;;;;;;0.10;0.10;;;;;;;1.96;91.47;102419.38;12707433;23;20006;-92
2021/04/03 02:39:24;;;;;;;0.15;0.15;;;;;;;1.87;91.51;102418.94;12707840;23;20106;-92
2021/04/03 02:44:33;;;;;;;0.15;0.15;;;;;;;1.96;91.20;102442.19;12708457;23;20051;-93
2021/04/03 02:49:43;;;;;;;0.10;0.10;;;;;;;1.91;91.21;102439.75;12707794;23;20013;-92
2021/04/03 02:54:44;;;;;;;0.20;0.20;;;;;;;1.85;91.23;102431.28;12707909;23;19993;-93
2021/04/03 02:59:53;;;;;;;0.10;0.10;;;;;;;1.75;91.62;102439.53;12706423;23;20050;-93
2021/04/03 03:04:55;;;;;;;0.10;0.10;;;;;;;1.65;91.07;102419.78;12704071;23;19986;-93
2021/04/03 03:09:56;;;;;;;0.20;0.20;;;;;;;1.71;91.11;102445.81;12706351;23;20018;-93
2021/04/03 03:15:00;;;;;;;0.20;0.20;;;;;;;1.56;91.41;102435.94;12706960;23;20033;-93
2021/04/03 03:20:01;;;;;;;0.20;0.20;;;;;;;1.62;91.43;102454.06;12707465;23;20013;-93
2021/04/03 03:25:02;;;;;;;0.20;0.20;;;;;;;1.56;91.54;102449.91;12667779;23;19998;-95
2021/04/03 03:30:05;;;;;;;0.10;0.10;;;;;;;1.50;91.58;102459.81;12643689;23;20350;-95
2021/04/03 03:35:06;;;;;;;0.20;0.20;;;;;;;1.41;91.85;102450.53;12643932;23;19999;-96
2021/04/03 03:40:08;;;;;;;0.20;0.20;;;;;;;1.34;92.26;102465.69;12643969;23;20014;-95
2021/04/03 03:45:12;;;;;;;0.20;0.20;;;;;;;1.26;92.59;102466.88;12644253;23;20018;-95
2021/04/03 03:50:13;;;;;;;0.20;0.20;;;;;;;1.23;92.14;102467.00;12645229;23;19999;-96
2021/04/03 03:55:13;;;;;;;0.17;0.17;;;;;;;1.18;92.13;102479.44;12644507;23;20026;-96
2021/04/03 04:00:14;;;;;;;0.10;0.10;;;;;;;1.00;91.65;102470.50;12642314;23;19990;-96
2021/04/03 04:05:15;;;;;;;0.10;0.10;;;;;;;1.02;91.06;102487.00;12644113;23;19991;-96
2021/04/03 04:10:15;;;;;;;0.20;0.20;;;;;;;0.94;90.89;102479.44;12644309;23;20022;-95
2021/04/03 04:15:16;;;;;;;0.20;0.20;;;;;;;0.82;90.38;102470.25;12644064;23;19998;-95
2021/04/03 04:20:16;;;;;;;0.08;0.08;;;;;;;0.83;90.02;102485.06;12644254;23;19987;-96
2021/04/03 04:25:17;;;;;;;0.20;0.20;;;;;;;0.73;90.02;102478.47;12644515;23;20014;-96
2021/04/03 04:30:17;;;;;;;0.20;0.20;;;;;;;0.62;90.23;102481.47;12644953;23;20018;-96
2021/04/03 04:35:18;;;;;;;0.10;0.10;;;;;;;0.57;89.80;102495.66;12644158;23;19998;-96
2021/04/03 04:40:18;;;;;;;0.10;0.10;;;;;;;0.58;90.27;102513.06;12644901;23;20005;-95
2021/04/03 04:45:18;;;;;;;0.10;0.10;;;;;;;0.46;90.33;102490.75;12643958;23;20227;-96
2021/04/03 04:50:22;;;;;;;0.20;0.20;;;;;;;0.37;91.19;102494.56;12642609;23;20006;-95
2021/04/03 04:55:22;;;;;;;0.20;0.20;;;;;;;0.53;92.28;102515.03;12642889;23;20266;-96
2021/04/03 05:00:23;;;;;;;0.10;0.10;;;;;;;0.89;91.24;102505.84;12646565;23;20007;-96
2021/04/03 05:05:23;;;;;;;0.20;0.20;;;;;;;1.78;88.36;102514.75;12647144;23;19999;-96
2021/04/03 05:10:24;;;;;;;0.20;0.20;;;;;;;2.72;84.34;102520.44;12646663;23;20235;-95
2021/04/03 05:15:24;;;;;;;0.10;0.10;;;;;;;3.74;80.75;102545.66;12647039;23;19998;-96
2021/04/03 05:20:24;;;;;;;0.10;0.10;;;;;;;4.50;76.92;102530.47;12647551;23;20222;-95
2021/04/03 05:25:25;;;;;;;0.10;0.10;;;;;;;5.55;74.24;102557.50;12647310;23;19995;-95
2021/04/03 05:30:25;;;;;;;0.00;0.00;;;;;;;6.67;70.32;102577.63;12647617;23;20042;-95
2021/04/03 05:35:26;;;;;;;0.10;0.10;;;;;;;7.55;67.65;102570.47;12646993;23;19999;-94
2021/04/03 05:40:26;;;;;;;0.00;0.00;;;;;;;8.23;65.22;102559.03;12647043;23;19995;-96
2021/04/03 05:45:27;;;;;;;0.00;0.00;;;;;;;9.01;63.01;102572.34;12647446;23;20018;-95
2021/04/03 10:03:45;;;;;;;0.10;0.10;;;;;;;12.70;45.72;102729.25;10424639;27;20406;-70
2021/04/03 10:08:45;;;;;;;0.10;0.10;;;;;;;12.80;44.58;102724.00;10402240;28;20068;-70
2021/04/03 10:13:46;;;;;;;0.10;0.10;;;;;;;12.61;43.20;102730.88;10385092;28;86224;-71
2021/04/03 10:18:46;;;;;;;0.10;0.10;;;;;;;12.72;41.49;102729.16;10374937;28;20048;-70
2021/04/03 10:23:47;;;;;;;0.00;0.00;;;;;;;12.84;42.74;102734.31;10369751;28;20022;-71
2021/04/03 10:28:47;;;;;;;0.10;0.10;;;;;;;12.95;41.05;102732.59;10378132;28;20026;-71
2021/04/03 10:33:48;;;;;;;0.00;0.00;;;;;;;12.59;41.45;102740.00;10362258;28;20485;-71
2021/04/03 10:38:48;;;;;;;0.03;0.03;;;;;;;12.45;41.71;102739.31;10360664;28;20018;-71
2021/04/03 10:43:48;;;;;;;0.00;0.00;;;;;;;12.42;40.16;102731.53;10395399;28;20030;-71
2021/04/03 10:48:48;;;;;;;0.10;0.10;;;;;;;12.45;38.14;102735.78;10432696;28;20037;-71
2021/04/03 10:53:49;;;;;;;0.03;0.03;;;;;;;12.46;37.16;102734.81;10414928;28;20033;-71
2021/04/03 10:58:49;;;;;;;0.10;0.10;;;;;;;12.26;38.80;102727.56;10392480;28;20048;-71
2021/04/03 11:03:50;;;;;;;0.10;0.10;;;;;;;12.26;39.93;102736.41;10405042;28;20032;-71
2021/04/03 11:08:50;;;;;;;0.00;0.00;;;;;;;11.89;40.27;102736.66;10400228;28;20071;-71
2021/04/03 11:13:50;;;;;;;0.00;0.00;;;;;;;12.09;43.15;102731.59;10378321;28;20032;-70
2021/04/03 11:18:52;;;;;;;0.00;0.00;;;;;;;12.18;39.88;102726.34;10372598;28;20026;-71
2021/04/03 11:23:53;;;;;;;0.00;0.00;;;;;;;12.23;41.62;102721.47;10372103;28;20104;-71
2021/04/03 11:28:53;;;;;;;0.10;0.10;;;;;;;12.12;40.91;102710.81;10370929;28;20101;-71
2021/04/03 11:33:54;;;;;;;0.10;0.10;;;;;;;12.05;41.47;102716.78;10367053;28;20030;-71
2021/04/03 11:38:54;;;;;;;0.10;0.10;;;;;;;12.04;39.36;102717.75;10372185;28;20038;-71
2021/04/03 11:43:56;;;;;;;0.00;0.00;;;;;;;12.09;41.34;102718.22;10373210;28;20068;-71
2021/04/03 11:48:57;;;;;;;0.10;0.10;;;;;;;12.14;41.07;102713.38;10372523;28;20140;-71
2021/04/03 11:53:57;;;;;;;0.10;0.10;;;;;;;12.18;41.11;102707.63;10372953;28;20052;-71
2021/04/03 11:58:58;;;;;;;0.00;0.00;;;;;;;12.14;42.12;102708.03;10370594;28;20338;-71
2021/04/03 12:03:58;;;;;;;0.00;0.00;;;;;;;11.98;40.93;102705.72;10371833;28;20409;-71
2021/04/03 12:09:01;;;;;;;0.00;0.00;;;;;;;12.02;41.82;102703.69;10370512;28;20105;-71
2021/04/03 12:14:02;;;;;;;0.00;0.00;;;;;;;12.13;42.86;102699.16;10371692;28;20136;-71
2021/04/03 12:19:02;;;;;;;0.00;0.00;;;;;;;12.22;41.70;102705.59;10370884;28;20101;-71
2021/04/03 12:24:03;;;;;;;0.00;0.00;;;;;;;12.00;42.02;102701.97;10370334;28;20276;-71
2021/04/03 12:29:03;;;;;;;0.00;0.00;;;;;;;11.87;41.87;102687.03;10369535;28;20120;-71
2021/04/03 12:34:03;;;;;;;0.10;0.10;;;;;;;11.73;43.94;102693.47;10368188;28;20420;-71
2021/04/03 12:39:04;;;;;;;0.10;0.10;;;;;;;11.91;44.03;102688.50;10364086;28;20032;-71
2021/04/03 12:44:05;;;;;;;0.10;0.10;;;;;;;11.72;45.05;102681.94;10370921;28;20116;-71
2021/04/03 12:49:05;;;;;;;0.10;0.10;;;;;;;11.92;46.61;102669.66;10370371;28;20030;-71
2021/04/03 12:54:06;;;;;;;0.00;0.00;;;;;;;12.13;45.13;102669.78;10370429;28;20548;-71
2021/04/03 12:59:06;;;;;;;0.10;0.10;;;;;;;11.71;43.99;102674.88;10342953;28;20037;-71
2021/04/03 13:04:06;;;;;;;0.10;0.10;;;;;;;11.72;45.82;102665.03;10378016;28;20488;-71
2021/04/03 13:09:07;;;;;;;0.00;0.00;;;;;;;11.92;46.17;102663.47;10348785;28;20282;-71
2021/04/03 13:14:07;;;;;;;0.10;0.10;;;;;;;12.13;45.68;102667.13;10434172;28;20017;-71
2021/04/03 13:19:08;;;;;;;0.00;0.00;;;;;;;12.04;45.93;102659.81;10408725;28;20034;-71
2021/04/03 13:24:08;;;;;;;0.00;0.00;;;;;;;12.18;47.84;102654.22;10436723;28;20041;-71
2021/04/03 13:29:09;;;;;;;0.00;0.00;;;;;;;12.10;49.74;102647.78;10449390;28;20087;-71
2021/04/03 13:34:09;;;;;;;0.10;0.10;;;;;;;11.62;47.34;102656.91;10447485;28;20369;-71
2021/04/03 13:39:12;;;;;;;0.00;0.00;;;;;;;11.38;48.95;102656.19;10447587;28;20029;-71
2021/04/03 13:44:13;;;;;;;0.00;0.00;;;;;;;11.38;52.55;102649.03;10446941;28;20025;-71
2021/04/03 13:49:13;;;;;;;0.03;0.03;;;;;;;11.45;52.24;102642.22;10443609;28;20028;-71
2021/04/03 13:54:13;;;;;;;0.00;0.00;;;;;;;11.37;53.83;102649.97;10445554;28;20017;-71
2021/04/03 13:59:13;;;;;;;0.00;0.00;;;;;;;11.63;55.02;102645.25;10446520;28;20036;-71
2021/04/03 14:04:14;;;;;;;0.00;0.00;;;;;;;11.67;54.94;102641.41;10448146;28;20024;-73
2021/04/03 14:09:14;;;;;;;0.00;0.00;;;;;;;11.44;54.83;102632.53;10446576;28;20055;-71
2021/04/03 14:14:14;;;;;;;0.00;0.00;;;;;;;11.29;55.27;102631.94;10445761;28;20271;-71
2021/04/03 14:19:15;;;;;;;0.10;0.10;;;;;;;11.35;55.25;102637.75;10444170;28;20033;-71
2021/04/03 14:24:15;;;;;;;0.00;0.00;;;;;;;11.26;55.65;102632.16;10447763;28;20271;-71
2021/04/03 14:29:15;;;;;;;0.10;0.10;;;;;;;11.19;56.97;102635.41;10449413;28;20048;-71
2021/04/03 14:34:16;;;;;;;0.00;0.00;;;;;;;11.21;57.59;102633.50;10448915;28;20017;-71
2021/04/03 14:39:16;;;;;;;0.10;0.10;;;;;;;11.05;58.34;102631.16;10447198;28;20049;-71
2021/04/03 14:44:16;;;;;;;0.00;0.00;;;;;;;10.93;58.07;102629.44;10448306;28;20029;-72
2021/04/03 14:49:19;;;;;;;0.00;0.00;;;;;;;10.82;58.50;102628.44;10452928;28;20040;-71
2021/04/03 14:54:19;;;;;;;0.00;0.00;;;;;;;10.75;59.99;102616.53;10451130;28;20112;-71
2021/04/03 14:59:23;;;;;;;0.10;0.10;;;;;;;10.75;59.67;102613.03;10452489;28;20429;-71
2021/04/03 15:04:23;;;;;;;0.10;0.10;;;;;;;10.73;60.35;102612.28;10454831;28;20031;-71
2021/04/03 15:09:23;;;;;;;0.00;0.00;;;;;;;10.78;61.50;102610.97;10452429;28;20028;-71
2021/04/03 15:14:24;;;;;;;0.00;0.00;;;;;;;10.74;61.61;102616.66;10456456;28;20644;-71
2021/04/03 15:19:24;;;;;;;0.00;0.00;;;;;;;10.57;60.05;102615.28;10451500;28;20029;-71
2021/04/03 15:24:24;;;;;;;0.00;0.00;;;;;;;10.56;59.92;102616.22;10451143;28;20032;-72
2021/04/03 15:29:25;;;;;;;0.00;0.00;;;;;;;10.55;59.49;102615.38;10455054;28;20040;-71
2021/04/03 15:34:25;;;;;;;0.00;0.00;;;;;;;10.45;59.80;102611.72;10451592;28;20024;-71
2021/04/03 15:39:25;;;;;;;0.00;0.00;;;;;;;10.45;60.17;102609.03;10448674;28;20045;-71
2021/04/03 15:44:25;;;;;;;0.00;0.00;;;;;;;10.38;61.82;102607.78;10451070;28;20039;-71
2021/04/03 15:49:26;;;;;;;0.00;0.00;;;;;;;10.22;61.58;102607.22;10453414;28;20075;-71
2021/04/03 15:54:26;;;;;;;0.00;0.00;;;;;;;9.97;61.80;102607.19;10452633;28;20062;-71
2021/04/03 15:59:26;;;;;;;0.00;0.00;;;;;;;9.83;60.77;102610.03;10447308;28;20327;-71
2021/04/03 16:04:27;;;;;;;0.00;0.00;;;;;;;9.72;62.22;102615.25;10451932;28;20109;-71
2021/04/03 16:09:28;;;;;;;0.00;0.00;;;;;;;9.49;62.17;102612.41;10453360;28;20379;-73
2021/04/03 16:14:29;;;;;;;0.00;0.00;;;;;;;9.18;62.86;102611.03;10451754;28;20271;-72
2021/04/03 16:19:29;;;;;;;0.00;0.00;;;;;;;8.97;65.09;102609.88;10450192;28;20082;-72
2021/04/03 16:24:29;;;;;;;0.00;0.00;;;;;;;8.77;64.99;102611.22;10452639;28;20362;-72
2021/04/03 16:29:30;;;;;;;0.00;0.00;;;;;;;8.54;65.70;102607.47;10451020;28;20274;-72
2021/04/03 16:34:30;;;;;;;0.00;0.00;;;;;;;8.40;62.72;102603.06;10456850;28;20027;-72
2021/04/03 16:39:30;;;;;;;0.00;0.00;;;;;;;8.28;62.68;102595.88;10452492;28;20056;-72
2021/04/03 16:44:30;;;;;;;0.00;0.00;;;;;;;8.16;62.91;102601.03;10447678;28;20075;-72
2021/04/03 16:49:32;;;;;;;0.00;0.00;;;;;;;8.01;64.35;102601.19;10449358;28;20024;-72
2021/04/03 16:54:32;;;;;;;0.00;0.00;;;;;;;7.90;66.89;102599.22;10451270;28;20028;-72
2021/04/03 16:59:34;;;;;;;0.00;0.00;;;;;;;7.76;68.15;102597.44;10450621;28;20029;-72
2021/04/03 17:04:34;;;;;;;0.00;0.00;;;;;;;7.63;70.11;102610.63;10450833;28;20047;-72
2021/04/03 17:09:34;;;;;;;0.00;0.00;;;;;;;7.49;71.50;102600.03;10448189;28;20013;-72
2021/04/03 17:14:35;;;;;;;0.00;0.00;;;;;;;7.37;72.70;102609.59;10448112;28;20032;-72
2021/04/03 17:19:39;;;;;;;0.00;0.00;;;;;;;7.20;73.66;102613.28;10450178;28;20064;-72
2021/04/03 17:24:39;;;;;;;0.00;0.00;;;;;;;7.04;74.39;102615.19;10451416;28;20025;-72
2021/04/03 17:29:39;;;;;;;0.00;0.00;;;;;;;6.87;75.37;102608.22;10450429;28;20023;-72
2021/04/03 17:34:40;;;;;;;0.00;0.00;;;;;;;6.73;75.55;102618.78;10450242;28;20147;-72
2021/04/03 17:39:40;;;;;;;0.00;0.00;;;;;;;6.55;76.42;102626.00;10448911;28;20029;-73
2021/04/03 17:44:41;;;;;;;0.00;0.00;;;;;;;6.41;77.44;102625.97;10443659;28;20037;-72
2021/04/03 17:49:41;;;;;;;0.00;0.00;;;;;;;6.29;78.14;102631.00;10448813;28;20013;-73
2021/04/03 17:54:42;;;;;;;0.00;0.00;;;;;;;6.20;78.72;102635.97;10449889;28;20029;-73
2021/04/03 17:59:42;;;;;;;0.08;0.08;;;;;;;6.10;78.19;102640.91;10448262;28;20033;-72
2021/04/03 18:04:43;;;;;;;0.00;0.00;;;;;;;5.90;78.87;102637.56;10448980;28;20025;-73
2021/04/03 18:09:43;;;;;;;0.00;0.00;;;;;;;5.72;78.79;102653.56;10448576;28;20274;-72
2021/04/03 18:14:44;;;;;;;0.00;0.00;;;;;;;5.52;79.81;102652.84;10449540;28;20032;-73
2021/04/03 18:19:46;;;;;;;0.00;0.00;;;;;;;5.37;79.68;102649.22;10448265;28;20418;-72
2021/04/03 18:24:46;;;;;;;0.10;0.10;;;;;;;5.22;80.30;102650.88;10456943;28;20234;-73
2021/04/03 18:29:47;;;;;;;0.00;0.00;;;;;;;5.09;80.25;102647.19;10457625;28;20427;-73
2021/04/03 18:34:48;;;;;;;0.00;0.00;;;;;;;4.99;80.01;102654.69;10458191;28;20025;-73
2021/04/03 18:39:48;;;;;;;0.00;0.00;;;;;;;4.90;81.10;102660.44;10457358;28;20460;-72
2021/04/03 18:44:50;;;;;;;0.07;0.07;;;;;;;4.80;81.77;102653.94;10455938;28;20047;-73
2021/04/03 18:49:50;;;;;;;0.00;0.00;;;;;;;4.71;82.26;102663.19;10451583;28;20305;-73
2021/04/03 18:54:50;;;;;;;0.10;0.10;;;;;;;4.65;81.42;102663.44;10457674;28;20070;-73
2021/04/03 18:59:51;;;;;;;0.00;0.00;;;;;;;4.58;82.91;102658.56;10454793;28;20025;-74
2021/04/03 19:04:51;;;;;;;0.03;0.03;;;;;;;4.49;82.29;102660.72;10455862;28;20017;-74
2021/04/03 19:09:52;;;;;;;0.00;0.00;;;;;;;4.41;83.71;102662.88;10456297;28;20029;-74
2021/04/03 19:14:52;;;;;;;0.08;0.08;;;;;;;4.32;83.28;102660.69;10456547;28;20108;-73
2021/04/03 19:19:53;;;;;;;0.10;0.10;;;;;;;4.26;83.90;102666.25;10454395;28;20041;-73
2021/04/03 19:24:53;;;;;;;0.10;0.10;;;;;;;4.18;83.99;102665.75;10454457;28;20048;-74
2021/04/03 19:29:53;;;;;;;0.10;0.10;;;;;;;4.06;83.71;102665.41;10453303;28;20468;-73
2021/04/03 19:34:55;;;;;;;0.10;0.10;;;;;;;3.99;83.96;102663.16;10455423;28;20024;-73
2021/04/03 19:39:55;;;;;;;0.10;0.10;;;;;;;3.92;84.74;102659.06;10454811;28;20029;-73
2021/04/03 19:44:55;;;;;;;0.10;0.10;;;;;;;3.82;84.72;102658.66;10450359;28;20036;-73
2021/04/03 19:49:56;;;;;;;0.07;0.07;;;;;;;3.73;85.24;102657.28;10448735;28;20381;-73
2021/04/03 19:54:56;;;;;;;0.15;0.15;;;;;;;3.65;85.98;102655.94;10450570;28;20316;-73
2021/04/03 19:59:56;;;;;;;0.20;0.20;;;;;;;3.57;86.03;102656.25;10450760;28;20025;-73
2021/04/03 20:04:57;;;;;;;0.08;0.08;;;;;;;3.51;86.30;102667.94;10453095;28;20472;-73
2021/04/03 20:09:57;;;;;;;0.10;0.10;;;;;;;3.44;86.75;102663.03;10447939;28;20461;-73
2021/04/03 20:14:59;;;;;;;0.13;0.13;;;;;;;3.35;86.82;102665.13;10450763;28;20044;-73
2021/04/03 20:19:59;;;;;;;0.20;0.20;;;;;;;3.31;87.00;102663.53;10446642;28;20036;-73
2021/04/03 20:25:00;;;;;;;0.10;0.10;;;;;;;3.25;87.60;102671.72;10449552;28;20095;-73
2021/04/03 20:30:00;;;;;;;0.10;0.10;;;;;;;3.17;87.67;102666.78;10449820;28;20024;-73
2021/04/03 20:35:00;;;;;;;0.20;0.20;;;;;;;3.13;88.74;102670.47;10452427;28;20464;-73
2021/04/03 20:40:01;;;;;;;0.20;0.20;;;;;;;3.12;88.92;102666.13;10453250;28;20451;-73
2021/04/03 20:45:02;;;;;;;0.08;0.08;;;;;;;3.12;88.91;102662.66;10452741;28;20021;-73
2021/04/03 20:50:05;;;;;;;0.20;0.20;;;;;;;3.11;89.30;102661.78;10449997;28;20036;-72
2021/04/03 20:55:07;;;;;;;0.10;0.10;;;;;;;3.11;90.04;102661.78;10449473;28;20468;-72
2021/04/03 21:00:10;;;;;;;0.10;0.10;;;;;;;3.12;90.06;102663.50;10448950;28;20036;-67
2021/04/03 21:05:11;;;;;;;0.10;0.10;;;;;;;3.09;89.39;102660.16;10448449;28;20029;-68
2021/04/03 21:10:12;;;;;;;0.20;0.20;;;;;;;3.03;89.30;102660.41;10449095;28;20021;-68
2021/04/03 21:15:12;;;;;;;0.20;0.20;;;;;;;2.99;89.45;102658.81;10450400;28;20029;-67
2021/04/03 21:20:13;;;;;;;0.20;0.20;;;;;;;2.94;89.96;102654.59;10449312;28;20226;-72
2021/04/03 21:25:13;;;;;;;0.10;0.10;;;;;;;2.90;90.02;102654.78;10448704;28;20107;-73
2021/04/03 21:30:14;;;;;;;0.10;0.10;;;;;;;2.84;90.07;102648.00;10448861;28;20048;-68
2021/04/03 21:35:14;;;;;;;0.10;0.10;;;;;;;2.78;90.14;102658.78;10447621;28;20267;-68
2021/04/03 21:40:15;;;;;;;0.20;0.20;;;;;;;2.76;90.19;102643.97;10448352;28;20430;-68
2021/04/03 21:45:16;;;;;;;0.10;0.10;;;;;;;2.68;90.44;102641.69;10448709;28;20025;-68
2021/04/03 21:50:16;;;;;;;0.10;0.10;;;;;;;2.62;90.18;102632.28;10449424;28;20448;-68
2021/04/03 21:55:17;;;;;;;0.20;0.20;;;;;;;2.58;90.55;102635.06;10449138;28;20040;-68
2021/04/03 22:00:21;;;;;;;0.13;0.13;;;;;;;2.47;90.53;102628.50;10445411;28;20033;-68
2021/04/03 22:05:22;;;;;;;0.20;0.20;;;;;;;2.42;90.97;102627.81;10448742;28;20260;-68
2021/04/03 22:10:23;;;;;;;0.28;0.28;;;;;;;2.34;90.62;102629.06;10448157;28;20021;-68
2021/04/03 22:15:24;;;;;;;0.20;0.20;;;;;;;2.23;90.90;102624.22;10474160;22;20625;-67
2021/04/03 22:20:24;;;;;;;0.20;0.20;;;;;;;2.14;91.29;102630.69;10459891;28;20023;-66
2021/04/03 22:25:25;;;;;;;0.30;0.30;;;;;;;2.07;91.28;102617.88;10475717;28;20406;-67
2021/04/03 22:30:26;;;;;;;0.20;0.20;;;;;;;2.00;91.44;102618.06;10461170;28;20051;-67
2021/04/03 22:35:27;;;;;;;0.20;0.20;;;;;;;1.96;91.71;102618.28;10469090;28;20078;-67
2021/04/03 22:40:28;;;;;;;0.10;0.10;;;;;;;1.91;92.03;102615.81;10463432;28;20067;-66
2021/04/03 22:45:28;;;;;;;0.20;0.20;;;;;;;1.88;92.29;102615.09;10460315;28;20029;-67
2021/04/03 22:50:29;;;;;;;0.10;0.10;;;;;;;1.83;91.96;102614.41;10448612;28;20009;-67
2021/04/03 22:55:29;;;;;;;0.10;0.10;;;;;;;1.70;91.72;102617.50;10470922;28;20036;-66
2021/04/03 23:00:29;;;;;;;0.15;0.15;;;;;;;1.57;91.75;102622.38;10489646;28;20391;-66
2021/04/03 23:05:34;;;;;;;0.13;0.13;;;;;;;1.44;91.94;102620.25;10483790;28;20049;-66
2021/04/03 23:10:34;;;;;;;0.20;0.20;;;;;;;1.33;91.83;102616.22;10509073;28;20446;-67
2021/04/03 23:15:35;;;;;;;0.15;0.15;;;;;;;1.25;92.25;102613.03;10502256;28;20111;-66
2021/04/03 23:20:35;;;;;;;0.13;0.13;;;;;;;1.31;93.39;102607.56;10455749;28;20024;-66
2021/04/03 23:25:35;;;;;;;0.10;0.10;;;;;;;1.48;94.50;102613.94;10455463;28;20111;-67
2021/04/03 23:30:36;;;;;;;0.20;0.20;;;;;;;1.54;94.08;102614.59;10475567;28;20039;-66
2021/04/03 23:35:36;;;;;;;0.10;0.10;;;;;;;1.55;93.97;102610.19;10511559;28;20020;-66
2021/04/03 23:40:36;;;;;;;0.20;0.20;;;;;;;1.55;94.12;102604.94;10481024;28;20315;-66
2021/04/03 23:45:37;;;;;;;0.20;0.20;;;;;;;1.59;94.14;102611.78;10459680;28;20561;-66
2021/04/03 23:50:38;;;;;;;0.20;0.20;;;;;;;1.59;94.02;102611.78;10455970;28;20417;-66
2021/04/03 23:55:38;;;;;;;0.20;0.20;;;;;;;1.57;93.58;102614.50;10458071;28;20100;-66
